Time;durP1;ratioP1;P1;durP2;ratioP2;P2;SDS_P1;SDS_P2;PMS_P1;PMS_P2;Temp;Humidity;BMP_temperature;BMP_pressure;BME280_temperature;BME280_humidity;BME280_pressure;Samples;Min_cycle;Max_cycle;Signal;HPM_P1;HPM_P2
2022/04/16 00:02:02;;;;;;;7.03;6.53;;;;;;;12.99;67.40;99356.03;5111551;28;20612;-58
2022/04/16 00:04:29;;;;;;;8.53;6.80;;;;;;;12.78;68.44;99346.63;5111612;28;20195;-59
2022/04/16 00:06:58;;;;;;;7.17;6.50;;;;;;;12.67;68.43;99353.91;5111731;28;20575;-58
2022/04/16 00:09:25;;;;;;;7.43;6.77;;;;;;;12.53;69.75;99350.19;5111222;27;20202;-58
2022/04/16 00:11:52;;;;;;;7.53;6.67;;;;;;;12.38;70.00;99349.91;5110532;28;20285;-58
2022/04/16 00:14:19;;;;;;;6.97;6.47;;;;;;;12.16;71.04;99360.16;5111837;28;20676;-58
2022/04/16 00:16:46;;;;;;;8.20;6.90;;;;;;;12.07;71.83;99363.09;5111389;28;20194;-58
2022/04/16 00:19:14;;;;;;;6.30;5.90;;;;;;;11.86;72.41;99374.13;5111849;28;20213;-58
2022/04/16 00:21:41;;;;;;;6.90;6.40;;;;;;;11.65;73.30;99373.13;5111078;28;20214;-58
2022/04/16 00:24:09;;;;;;;6.17;5.67;;;;;;;11.57;74.57;99365.69;5111106;28;20199;-59
2022/04/16 00:26:41;;;;;;;6.43;5.93;;;;;;;11.46;74.97;99370.38;5110998;28;20195;-60
2022/04/16 00:29:08;;;;;;;5.60;5.27;;;;;;;11.36;75.47;99369.00;5111317;28;20194;-58
2022/04/16 00:31:36;;;;;;;5.73;5.33;;;;;;;11.41;75.41;99367.09;5110696;28;20578;-58
2022/04/16 00:34:05;;;;;;;6.00;4.97;;;;;;;11.30;76.04;99358.94;5110422;28;20689;-59
2022/04/16 00:36:31;;;;;;;5.53;5.13;;;;;;;11.19;77.41;99366.16;5110911;28;20202;-58
2022/04/16 00:38:58;;;;;;;5.77;5.37;;;;;;;11.19;77.70;99366.16;5111121;28;20301;-59
2022/04/16 00:41:27;;;;;;;4.80;4.37;;;;;;;11.24;77.64;99359.16;5110958;28;20286;-59
2022/04/16 00:43:54;;;;;;;4.77;4.47;;;;;;;11.16;77.88;99356.00;5111010;28;20285;-59
2022/04/16 00:46:21;;;;;;;5.57;5.07;;;;;;;11.27;77.31;99353.91;5110896;28;20289;-58
2022/04/16 00:48:49;;;;;;;4.47;4.27;;;;;;;11.31;77.19;99350.34;5110725;28;20191;-58
2022/04/16 00:51:16;;;;;;;4.70;4.20;;;;;;;11.37;76.95;99354.44;5110810;28;20195;-58
2022/04/16 00:53:44;;;;;;;4.73;4.40;;;;;;;11.44;76.64;99351.59;5111272;28;20199;-58
2022/04/16 00:56:12;;;;;;;4.63;4.33;;;;;;;11.52;76.39;99351.34;5110842;28;20222;-58
2022/04/16 00:58:41;;;;;;;5.50;4.67;;;;;;;11.57;75.73;99352.84;5111136;28;20195;-58
2022/04/16 01:01:08;;;;;;;4.83;4.63;;;;;;;11.39;76.11;99335.53;5110913;28;20567;-58
2022/04/16 01:03:36;;;;;;;4.90;4.50;;;;;;;11.53;76.08;99356.41;5111020;28;20297;-58
2022/04/16 01:06:03;;;;;;;4.53;4.30;;;;;;;11.57;75.98;99358.00;5111865;28;20206;-59
2022/04/16 01:08:30;;;;;;;4.50;4.10;;;;;;;11.62;75.27;99350.13;5110828;28;20210;-58
2022/04/16 01:10:57;;;;;;;4.97;4.57;;;;;;;11.54;76.25;99358.09;5110659;28;20195;-58
2022/04/16 01:13:24;;;;;;;4.83;4.43;;;;;;;11.48;76.52;99353.19;5110589;28;20290;-58
2022/04/16 01:15:53;;;;;;;4.27;4.07;;;;;;;11.33;77.35;99358.84;5111189;28;20298;-58
2022/04/16 01:18:20;;;;;;;4.80;4.40;;;;;;;11.35;77.30;99357.06;5110462;28;20211;-60
2022/04/16 01:20:47;;;;;;;5.07;4.57;;;;;;;11.35;77.61;99354.47;5111226;28;20252;-60
2022/04/16 01:23:16;;;;;;;4.67;4.47;;;;;;;11.38;76.94;99366.38;5110656;28;20818;-58
2022/04/16 01:25:44;;;;;;;7.93;5.20;;;;;;;11.44;77.45;99366.16;5110469;28;20229;-57
2022/04/16 01:28:12;;;;;;;5.63;5.23;;;;;;;11.31;77.58;99358.03;5113882;28;20191;-57
2022/04/16 01:30:39;;;;;;;7.20;6.50;;;;;;;11.28;77.42;99360.72;5111370;28;20234;-58
2022/04/16 01:33:06;;;;;;;9.57;6.40;;;;;;;11.14;78.95;99352.66;5114131;28;20205;-58
2022/04/16 01:35:33;;;;;;;12.53;7.03;;;;;;;11.10;78.16;99360.50;5114063;28;20666;-57
2022/04/16 01:38:00;;;;;;;8.77;6.27;;;;;;;11.11;78.38;99357.03;5114320;27;20278;-57
2022/04/16 01:40:29;;;;;;;5.40;5.00;;;;;;;11.12;77.06;99364.66;5114314;28;20651;-58
2022/04/16 01:42:58;;;;;;;6.50;4.97;;;;;;;11.07;77.12;99353.75;5113119;28;20206;-57
2022/04/16 01:45:26;;;;;;;33.90;6.30;;;;;;;11.05;77.53;99347.81;5113630;28;20199;-57
2022/04/16 01:47:53;;;;;;;5.70;4.93;;;;;;;11.04;77.42;99346.13;5114365;27;20194;-58
2022/04/16 01:50:22;;;;;;;5.40;5.00;;;;;;;11.06;76.79;99349.47;5112889;28;20194;-58
2022/04/16 01:52:48;;;;;;;4.70;4.40;;;;;;;11.08;76.87;99352.84;5111104;28;20197;-58
2022/04/16 01:55:16;;;;;;;4.13;3.93;;;;;;;10.99;77.06;99327.47;5112454;28;20206;-58
2022/04/16 01:57:44;;;;;;;7.50;4.23;;;;;;;11.08;78.02;99340.03;5112510;28;20256;-58
2022/04/16 02:00:14;;;;;;;3.73;3.53;;;;;;;11.02;77.85;99340.19;5112438;28;20278;-57
2022/04/16 02:02:42;;;;;;;4.00;3.70;;;;;;;10.91;78.27;99334.59;5112584;28;20294;-58
2022/04/16 02:05:10;;;;;;;5.00;4.70;;;;;;;10.87;78.97;99330.47;5113263;28;20210;-58
2022/04/16 02:07:38;;;;;;;3.97;3.77;;;;;;;10.76;79.14;99315.41;5113996;27;20285;-58
2022/04/16 02:10:06;;;;;;;7.77;4.83;;;;;;;10.89;78.62;99342.34;5113913;28;20198;-58
2022/04/16 02:12:33;;;;;;;5.07;4.67;;;;;;;10.92;78.71;99333.72;5113274;28;20570;-58
2022/04/16 02:15:02;;;;;;;5.60;5.07;;;;;;;10.91;77.96;99337.16;5113939;28;20277;-58
2022/04/16 02:17:32;;;;;;;4.37;4.07;;;;;;;10.94;77.98;99337.06;5112868;28;20682;-58
2022/04/16 02:19:59;;;;;;;4.30;4.00;;;;;;;10.94;77.57;99319.13;5113387;28;20195;-58
2022/04/16 02:22:26;;;;;;;3.93;3.50;;;;;;;10.99;77.60;99322.34;5113433;28;20754;-58
2022/04/16 02:24:53;;;;;;;4.20;4.00;;;;;;;10.97;77.75;99324.16;5113227;28;20281;-58
2022/04/16 02:27:20;;;;;;;4.13;3.83;;;;;;;10.98;77.92;99320.69;5112240;28;20289;-58
2022/04/16 02:29:47;;;;;;;3.83;3.63;;;;;;;10.93;78.54;99312.28;5112312;28;20205;-58
2022/04/16 02:32:15;;;;;;;4.10;3.80;;;;;;;10.91;78.51;99319.22;5113371;28;20273;-58
2022/04/16 02:34:42;;;;;;;4.27;4.07;;;;;;;10.89;78.83;99320.97;5113250;27;20285;-58
2022/04/16 02:37:09;;;;;;;4.43;4.23;;;;;;;10.87;78.49;99322.75;5113936;27;20635;-58
2022/04/16 02:39:36;;;;;;;4.30;4.00;;;;;;;10.87;78.95;99327.88;5112935;28;20226;-58
2022/04/16 02:42:03;;;;;;;3.87;3.57;;;;;;;10.88;78.56;99324.44;5112963;28;20551;-58
2022/04/16 02:47:15;;;;;;;4.43;3.60;;;;;;;10.95;77.53;99321.59;5111940;27;20201;-59
2022/04/16 02:49:43;;;;;;;4.37;3.50;;;;;;;10.95;77.56;99311.34;5112919;28;20199;-59
2022/04/16 02:52:10;;;;;;;4.20;3.90;;;;;;;10.95;77.60;99315.66;5112694;28;20697;-58
2022/04/16 02:54:37;;;;;;;5.53;3.37;;;;;;;10.90;77.52;99312.41;5112883;28;20198;-58
2022/04/16 02:57:05;;;;;;;4.17;3.87;;;;;;;10.89;77.84;99311.56;5112566;28;20191;-57
2022/04/16 02:59:35;;;;;;;3.97;3.77;;;;;;;10.81;77.86;99302.44;5115584;27;20293;-58
2022/04/16 03:02:02;;;;;;;3.87;3.60;;;;;;;10.69;78.59;99305.41;5112538;28;20206;-58
2022/04/16 03:04:30;;;;;;;3.80;3.60;;;;;;;10.64;78.96;99304.72;5112463;28;20281;-58
2022/04/16 03:06:57;;;;;;;3.70;3.47;;;;;;;10.59;78.64;99304.03;5113154;27;20207;-58
2022/04/16 03:09:24;;;;;;;3.70;3.50;;;;;;;10.50;79.13;99305.97;5112592;28;20209;-58
2022/04/16 03:11:51;;;;;;;3.50;3.27;;;;;;;10.33;79.84;99310.81;5112416;28;20198;-58
2022/04/16 03:19:48;;;;;;;3.77;3.57;;;;;;;9.98;82.52;99293.88;5112604;27;20231;-58
2022/04/16 03:22:15;;;;;;;3.83;3.63;;;;;;;9.84;83.57;99295.19;5112166;28;20202;-58
2022/04/16 03:24:42;;;;;;;3.70;3.50;;;;;;;9.74;84.38;99296.31;5111703;28;20276;-59
2022/04/16 03:27:09;;;;;;;3.50;3.30;;;;;;;9.70;84.18;99292.16;5111211;28;20202;-59
2022/04/16 03:29:36;;;;;;;3.57;3.37;;;;;;;9.71;84.21;99296.41;5112359;28;20206;-58
2022/04/16 03:32:04;;;;;;;3.50;3.30;;;;;;;9.71;84.51;99286.16;5111738;28;20277;-60
2022/04/16 03:34:31;;;;;;;4.07;3.87;;;;;;;9.72;84.08;99295.53;5112013;28;20275;-59
2022/04/16 03:36:59;;;;;;;3.90;3.70;;;;;;;9.60;85.19;99303.53;5114910;27;20201;-58
2022/04/16 03:39:26;;;;;;;4.03;3.67;;;;;;;9.53;85.90;99309.72;5110939;27;20226;-58
2022/04/16 03:41:53;;;;;;;4.10;3.90;;;;;;;9.46;86.55;99316.72;5111746;28;20581;-58
2022/04/16 03:44:20;;;;;;;3.43;3.23;;;;;;;9.49;85.99;99314.94;5111567;28;20662;-59
2022/04/16 03:46:47;;;;;;;3.87;3.67;;;;;;;9.66;85.85;99321.31;5111943;28;20199;-58
2022/04/16 03:49:15;;;;;;;3.97;3.67;;;;;;;9.78;84.83;99318.41;5111093;28;20202;-59
2022/04/16 03:51:42;;;;;;;3.50;3.40;;;;;;;9.84;84.14;99308.81;5111613;28;20277;-58
2022/04/16 04:02:24;;;;;;;4.03;3.73;;;;;;;10.01;83.52;99318.59;5110131;28;20224;-59
2022/04/16 04:04:51;;;;;;;4.13;3.93;;;;;;;9.86;84.24;99319.84;5110047;28;20712;-59
2022/04/16 04:07:17;;;;;;;3.53;3.33;;;;;;;9.93;84.05;99325.63;5113520;27;20301;-59
2022/04/16 04:09:46;;;;;;;3.67;3.47;;;;;;;9.86;84.22;99334.38;5109812;28;20195;-59
2022/04/16 04:12:13;;;;;;;3.80;3.50;;;;;;;9.85;84.76;99332.72;5110131;28;20567;-59
2022/04/16 04:14:41;;;;;;;3.97;3.77;;;;;;;10.01;84.55;99339.06;5109574;28;20244;-59
2022/04/16 04:17:08;;;;;;;4.17;3.97;;;;;;;10.09;84.56;99339.69;5110399;28;20753;-59
2022/04/16 04:19:36;;;;;;;4.40;4.10;;;;;;;10.14;84.71;99337.88;5110859;28;20559;-59
2022/04/16 04:22:04;;;;;;;3.93;3.73;;;;;;;10.22;84.27;99335.06;5109143;28;20195;-58
2022/04/16 04:24:31;;;;;;;3.23;3.13;;;;;;;10.34;83.76;99338.09;5109841;28;20664;-59
2022/04/16 04:27:00;;;;;;;3.30;3.10;;;;;;;10.44;83.86;99344.63;5109925;28;20694;-58
2022/04/16 04:29:28;;;;;;;3.93;3.70;;;;;;;10.51;83.06;99340.97;5111044;28;20191;-58
2022/04/16 04:31:55;;;;;;;4.00;3.80;;;;;;;10.64;82.92;99346.56;5111065;28;20262;-59
2022/04/16 04:34:23;;;;;;;4.63;4.23;;;;;;;10.79;82.92;99360.66;5108842;28;20194;-59
2022/04/16 04:36:50;;;;;;;3.70;3.60;;;;;;;10.96;82.97;99363.50;5108772;28;20206;-59
2022/04/16 04:39:17;;;;;;;3.87;3.63;;;;;;;11.06;82.16;99355.47;5107177;28;20250;-58
2022/04/16 04:41:45;;;;;;;3.50;3.30;;;;;;;11.22;82.15;99358.34;5109062;28;20210;-58
2022/04/16 04:44:14;;;;;;;3.73;3.53;;;;;;;11.40;81.07;99360.31;5110164;28;20587;-58
2022/04/16 04:46:41;;;;;;;3.83;3.57;;;;;;;11.52;80.89;99365.03;5108811;28;20214;-59
2022/04/16 04:49:09;;;;;;;3.70;3.50;;;;;;;11.67;80.44;99362.78;5109727;28;20577;-58
2022/04/16 04:51:36;;;;;;;4.40;4.10;;;;;;;11.74;80.90;99354.88;5111209;28;20198;-59
2022/04/16 04:54:03;;;;;;;3.97;3.67;;;;;;;11.94;80.96;99367.00;5111056;28;20759;-58
2022/04/16 04:56:30;;;;;;;3.97;3.67;;;;;;;12.08;81.04;99357.88;5111158;28;20289;-58
2022/04/16 04:58:57;;;;;;;4.83;4.43;;;;;;;12.20;81.45;99354.03;5110932;28;20643;-59
2022/04/16 05:01:26;;;;;;;3.83;3.53;;;;;;;12.27;79.79;99358.06;5111637;28;20198;-58
2022/04/16 05:03:53;;;;;;;4.47;4.10;;;;;;;12.21;78.00;99355.72;5114641;28;20297;-58
2022/04/16 05:06:20;;;;;;;6.73;4.73;;;;;;;12.29;78.13;99358.81;5115848;27;20281;-59
2022/04/16 05:08:47;;;;;;;3.67;3.40;;;;;;;12.27;77.90;99360.63;5114767;28;20289;-58
2022/04/16 05:11:14;;;;;;;4.20;3.90;;;;;;;12.16;78.62;99357.59;5114786;28;20670;-60
2022/04/16 05:13:41;;;;;;;7.93;4.30;;;;;;;12.18;79.96;99355.00;5114445;28;20230;-59
2022/04/16 05:16:08;;;;;;;3.73;3.50;;;;;;;12.17;78.32;99354.16;5116316;27;20205;-58
2022/04/16 05:18:36;;;;;;;4.47;4.23;;;;;;;12.19;79.05;99362.63;5114996;28;20741;-59
2022/04/16 05:21:03;;;;;;;4.87;4.47;;;;;;;12.13;79.94;99360.28;5112971;27;20266;-59
2022/04/16 05:23:30;;;;;;;5.90;4.27;;;;;;;12.18;81.48;99358.38;5114118;28;20606;-59
2022/04/16 05:25:57;;;;;;;7.43;4.47;;;;;;;12.06;82.01;99338.28;5114584;27;20194;-60
2022/04/16 05:28:24;;;;;;;5.77;4.20;;;;;;;12.18;83.82;99357.56;5114791;27;20729;-59
2022/04/16 05:30:54;;;;;;;4.70;4.30;;;;;;;12.13;82.62;99359.44;5114319;28;20574;-59
2022/04/16 05:36:08;;;;;;;3.73;3.57;;;;;;;12.40;81.94;99358.41;5114072;28;20332;-59
2022/04/16 05:38:35;;;;;;;4.03;3.83;;;;;;;12.46;79.41;99366.75;5113256;28;20306;-60
2022/04/16 05:41:01;;;;;;;4.50;4.10;;;;;;;12.60;80.35;99369.59;5113878;27;20217;-57
2022/04/16 05:43:28;;;;;;;4.43;4.23;;;;;;;12.80;80.93;99367.97;5114301;27;20215;-57
2022/04/16 05:45:55;;;;;;;4.33;4.03;;;;;;;12.91;79.21;99379.53;5113914;27;20198;-57
2022/04/16 05:48:22;;;;;;;4.00;3.80;;;;;;;13.00;79.29;99383.47;5116137;27;20767;-57
2022/04/16 05:50:49;;;;;;;3.80;3.60;;;;;;;13.19;79.20;99379.28;5111360;28;20281;-58
2022/04/16 05:53:18;;;;;;;3.60;3.40;;;;;;;13.35;78.06;99382.88;5113469;27;20190;-57
2022/04/16 05:55:48;;;;;;;3.53;3.40;;;;;;;13.49;76.99;99377.16;5114704;27;20198;-57
2022/04/16 05:58:15;;;;;;;3.90;3.63;;;;;;;13.71;77.64;99366.78;5112747;27;20206;-57
2022/04/16 06:00:42;;;;;;;4.13;3.73;;;;;;;13.91;77.16;99364.16;5111526;28;20194;-58
2022/04/16 06:03:10;;;;;;;3.87;3.67;;;;;;;14.10;76.50;99358.13;5113084;27;20943;-59
2022/04/16 06:05:37;;;;;;;4.03;3.73;;;;;;;14.35;74.69;99363.03;5110881;27;20230;-58
2022/04/16 06:08:04;;;;;;;3.93;3.67;;;;;;;14.61;73.02;99361.81;5112956;28;20298;-59
2022/04/16 06:10:33;;;;;;;4.33;3.50;;;;;;;14.89;71.22;99363.94;5112044;28;20282;-59
2022/04/16 06:12:59;;;;;;;3.17;3.07;;;;;;;15.14;69.75;99361.81;5112797;28;20612;-59
2022/04/16 06:15:27;;;;;;;4.87;4.30;;;;;;;15.36;67.62;99357.25;5112068;27;20210;-59
2022/04/16 06:17:53;;;;;;;3.27;3.07;;;;;;;15.63;66.95;99358.50;5112693;27;20202;-58
2022/04/16 06:20:20;;;;;;;3.53;3.33;;;;;;;15.81;64.47;99355.84;5111507;28;20196;-59
2022/04/16 06:22:47;;;;;;;3.37;2.90;;;;;;;15.98;64.77;99355.81;5112886;27;20567;-58
2022/04/16 06:25:14;;;;;;;3.47;3.37;;;;;;;16.06;64.53;99343.28;5112150;28;20219;-58
2022/04/16 06:27:42;;;;;;;3.43;3.23;;;;;;;16.14;64.55;99336.81;5113042;27;20317;-61
2022/04/16 06:30:11;;;;;;;2.83;2.73;;;;;;;16.25;65.37;99333.66;5113313;27;20209;-60
2022/04/16 06:32:38;;;;;;;3.73;3.40;;;;;;;16.28;64.94;99330.91;5108746;27;20726;-58
2022/04/16 06:35:06;;;;;;;3.50;3.17;;;;;;;16.28;65.86;99323.16;5112335;27;20191;-58
2022/04/16 06:37:34;;;;;;;2.60;2.50;;;;;;;16.38;66.81;99323.47;5112316;27;20349;-58
2022/04/16 06:40:01;;;;;;;3.03;2.93;;;;;;;16.48;66.72;99319.47;5111961;28;20237;-58
2022/04/16 06:42:28;;;;;;;4.27;3.97;;;;;;;16.70;67.21;99323.34;5111837;27;20205;-59
2022/04/16 06:44:56;;;;;;;2.70;2.50;;;;;;;16.96;66.19;99326.25;5110604;27;20219;-59
2022/04/16 06:47:23;;;;;;;3.27;3.07;;;;;;;17.24;63.59;99331.50;5113417;27;20289;-59
2022/04/16 06:49:50;;;;;;;2.90;2.80;;;;;;;17.39;59.43;99319.38;5113645;27;20208;-58
2022/04/16 06:52:18;;;;;;;3.13;2.93;;;;;;;17.62;58.34;99319.72;5112787;27;20198;-59
2022/04/16 06:54:45;;;;;;;3.53;3.43;;;;;;;17.89;56.57;99316.38;5112340;27;20194;-59
2022/04/16 06:57:12;;;;;;;4.03;3.83;;;;;;;18.10;56.63;99317.66;5112310;27;20194;-58
2022/04/16 06:59:39;;;;;;;2.60;2.50;;;;;;;18.29;55.65;99313.81;5112477;28;20293;-59
2022/04/16 07:02:10;;;;;;;2.50;2.40;;;;;;;18.56;55.10;99313.88;5112529;28;20285;-58
2022/04/16 07:04:37;;;;;;;2.50;2.40;;;;;;;18.65;55.93;99292.50;5110182;28;20293;-59
2022/04/16 07:07:04;;;;;;;3.27;3.07;;;;;;;18.92;54.84;99302.03;5112877;27;20563;-58
2022/04/16 07:09:38;;;;;;;3.23;3.00;;;;;;;19.14;51.64;99302.25;5115481;27;20719;-58
2022/04/16 07:12:05;;;;;;;2.90;2.70;;;;;;;19.33;52.40;99292.28;5112868;27;20230;-59
2022/04/16 07:14:33;;;;;;;2.33;2.23;;;;;;;19.49;53.14;99290.34;5111615;28;20658;-59
2022/04/16 07:17:00;;;;;;;2.90;2.80;;;;;;;19.67;50.49;99290.88;5111081;27;20663;-59
2022/04/16 07:19:29;;;;;;;3.63;3.10;;;;;;;19.74;50.01;99282.50;5111887;27;20209;-59
2022/04/16 07:21:56;;;;;;;2.93;2.83;;;;;;;19.88;48.73;99279.78;5110153;28;20206;-58
2022/04/16 07:24:23;;;;;;;3.03;2.93;;;;;;;19.98;49.48;99284.34;5112592;27;20611;-59
2022/04/16 07:26:52;;;;;;;3.03;2.93;;;;;;;20.02;46.50;99291.00;5112717;27;20198;-59
2022/04/16 07:29:20;;;;;;;2.60;2.50;;;;;;;20.05;46.82;99290.78;5111748;27;20198;-59
2022/04/16 07:31:46;;;;;;;3.93;3.73;;;;;;;20.04;46.87;99291.72;5111048;28;20605;-59
2022/04/16 07:34:13;;;;;;;4.00;3.70;;;;;;;20.09;47.22;99297.44;5112437;27;20729;-59
2022/04/16 07:36:42;;;;;;;3.10;2.90;;;;;;;20.05;48.73;99291.63;5112262;27;20714;-59
2022/04/16 07:39:09;;;;;;;3.20;3.10;;;;;;;20.09;46.68;99281.84;5111351;28;20302;-59
2022/04/16 07:41:36;;;;;;;3.30;3.10;;;;;;;20.01;45.88;99273.72;5111606;27;20198;-59
2022/04/16 07:44:04;;;;;;;2.87;2.77;;;;;;;20.03;49.42;99279.66;5111632;28;20219;-59
2022/04/16 07:46:31;;;;;;;2.17;2.07;;;;;;;19.80;48.97;99271.72;5111240;27;20574;-58
2022/04/16 07:48:58;;;;;;;2.47;2.37;;;;;;;19.76;49.68;99270.25;5110444;28;20290;-58
2022/04/16 07:51:25;;;;;;;2.80;2.60;;;;;;;19.74;50.37;99271.31;5110190;28;20194;-58
2022/04/16 07:53:55;;;;;;;2.20;2.10;;;;;;;19.73;50.18;99269.63;5112609;27;20191;-58
2022/04/16 07:56:23;;;;;;;2.40;2.30;;;;;;;19.77;50.55;99269.28;5111254;28;20671;-58
2022/04/16 07:58:50;;;;;;;2.30;2.20;;;;;;;19.83;48.63;99271.50;5110994;28;20259;-58
2022/04/16 08:01:18;;;;;;;2.37;2.27;;;;;;;19.77;47.48;99265.88;5109797;28;20206;-59
2022/04/16 08:03:44;;;;;;;2.43;2.33;;;;;;;19.90;49.60;99266.69;5110806;28;20237;-58
2022/04/16 08:06:11;;;;;;;1.97;1.87;;;;;;;20.04;47.80;99279.53;5110824;28;20202;-58
2022/04/16 08:08:38;;;;;;;2.60;2.50;;;;;;;20.25;48.41;99267.63;5110232;28;20349;-59
2022/04/16 08:11:07;;;;;;;2.03;1.93;;;;;;;20.42;47.99;99276.81;5110107;28;20207;-58
2022/04/16 08:13:33;;;;;;;3.10;2.10;;;;;;;20.61;49.53;99269.38;5111484;28;20206;-59
2022/04/16 08:16:00;;;;;;;2.60;2.50;;;;;;;20.75;46.19;99271.75;5111497;27;20783;-58
2022/04/16 08:18:27;;;;;;;2.87;2.57;;;;;;;20.88;45.19;99266.47;5111853;27;20202;-59
2022/04/16 08:20:54;;;;;;;2.10;2.00;;;;;;;20.98;44.23;99264.00;5111708;28;20195;-58
2022/04/16 08:23:21;;;;;;;2.27;2.17;;;;;;;20.99;43.96;99261.31;5111699;28;20204;-58
2022/04/16 08:25:48;;;;;;;2.27;2.17;;;;;;;21.00;44.90;99257.75;5110315;28;20206;-58
2022/04/16 08:28:17;;;;;;;2.80;2.60;;;;;;;21.15;46.71;99247.97;5110046;28;20280;-58
2022/04/16 08:30:44;;;;;;;4.47;2.30;;;;;;;21.32;46.88;99255.34;5109236;28;20233;-58
2022/04/16 08:33:15;;;;;;;2.40;2.30;;;;;;;21.53;47.41;99242.44;5114291;28;20202;-58
2022/04/16 08:35:43;;;;;;;3.33;3.13;;;;;;;21.61;46.09;99227.03;5114045;27;20187;-58
2022/04/16 08:38:11;;;;;;;2.27;2.17;;;;;;;21.86;45.45;99242.41;5117049;27;20223;-58
2022/04/16 08:40:38;;;;;;;2.60;2.50;;;;;;;22.05;43.80;99242.63;5118600;27;20204;-58
2022/04/16 08:43:07;;;;;;;3.23;3.03;;;;;;;22.10;43.25;99240.47;5118051;27;20203;-59
2022/04/16 08:45:38;;;;;;;2.60;2.50;;;;;;;22.07;43.27;99237.31;5117305;27;20216;-58
2022/04/16 08:48:06;;;;;;;4.20;3.90;;;;;;;22.07;43.63;99212.00;5115522;27;20583;-58
2022/04/16 08:50:33;;;;;;;2.33;2.23;;;;;;;22.29;44.31;99237.25;5116565;27;20245;-60
2022/04/16 08:53:01;;;;;;;2.90;2.50;;;;;;;22.53;43.88;99235.22;5117873;27;20204;-59
2022/04/16 08:55:29;;;;;;;2.20;2.10;;;;;;;22.79;43.40;99230.50;5114731;27;20845;-58
2022/04/16 08:57:56;;;;;;;2.77;2.67;;;;;;;22.97;42.56;99235.03;5116119;27;20209;-59
2022/04/16 09:00:23;;;;;;;2.80;2.60;;;;;;;22.85;41.40;99228.22;5116251;27;20193;-61
2022/04/16 09:02:54;;;;;;;3.17;2.87;;;;;;;22.89;44.74;99223.56;5117253;27;20213;-60
2022/04/16 09:05:21;;;;;;;3.00;2.77;;;;;;;23.01;41.54;99223.34;5114627;27;20217;-60
2022/04/16 09:07:49;;;;;;;2.87;2.77;;;;;;;23.17;43.54;99219.44;5117617;27;20300;-60
2022/04/16 09:10:17;;;;;;;4.93;3.30;;;;;;;23.22;44.19;99206.81;5117224;27;20287;-60
2022/04/16 09:12:45;;;;;;;3.00;2.80;;;;;;;23.32;41.17;99212.94;5115905;27;20379;-62
2022/04/16 09:15:14;;;;;;;5.57;5.07;;;;;;;23.48;45.56;99205.47;5116895;27;20824;-62
2022/04/16 09:17:42;;;;;;;6.77;6.10;;;;;;;23.65;43.34;99210.03;5116848;27;20285;-64
2022/04/16 09:20:14;;;;;;;5.47;5.07;;;;;;;23.80;44.39;99193.00;5115957;27;20513;-60
2022/04/16 09:22:48;;;;;;;2.80;2.60;;;;;;;24.02;41.85;99203.25;5117430;27;20201;-61
2022/04/16 09:25:17;;;;;;;2.77;2.60;;;;;;;24.18;41.76;99207.16;5117526;27;20245;-62
2022/04/16 09:27:46;;;;;;;2.33;2.23;;;;;;;24.41;41.62;99195.44;5117676;27;20618;-61
2022/04/16 09:30:14;;;;;;;3.23;2.97;;;;;;;24.53;43.55;99197.78;5117446;27;20194;-62
2022/04/16 09:32:45;;;;;;;2.70;2.60;;;;;;;24.49;37.70;99178.03;5117326;27;20194;-64
2022/04/16 09:35:33;;;;;;;3.53;2.43;;;;;;;24.36;38.45;99179.31;5116415;28;20205;-63
2022/04/16 09:38:02;;;;;;;2.40;2.30;;;;;;;24.44;37.93;99192.53;5115207;28;20670;-63
2022/04/16 09:40:31;;;;;;;3.03;2.83;;;;;;;24.51;39.17;99184.00;5116355;28;20387;-63
2022/04/16 09:43:01;;;;;;;3.30;2.77;;;;;;;24.64;39.93;99173.22;5116530;27;20281;-64
2022/04/16 09:45:28;;;;;;;3.00;2.80;;;;;;;24.75;40.02;99167.78;5115996;27;20218;-65
2022/04/16 09:47:56;;;;;;;2.67;2.57;;;;;;;24.87;39.62;99176.38;5111758;27;20259;-62
2022/04/16 09:50:24;;;;;;;2.67;2.57;;;;;;;24.94;39.69;99154.66;5112503;28;20289;-62
2022/04/16 09:52:53;;;;;;;3.07;2.87;;;;;;;24.91;36.97;99168.06;5114325;28;20286;-61
2022/04/16 09:55:23;;;;;;;2.60;2.50;;;;;;;24.78;39.78;99154.41;5114559;28;20216;-62
2022/04/16 09:57:57;;;;;;;2.83;2.73;;;;;;;24.98;40.28;99161.28;5114440;27;20202;-61
2022/04/16 10:00:24;;;;;;;2.50;2.40;;;;;;;25.06;38.41;99163.19;5114315;28;20585;-62
2022/04/16 10:02:53;;;;;;;2.30;2.20;;;;;;;25.19;39.46;99160.25;5113867;28;20203;-61
2022/04/16 10:05:21;;;;;;;2.70;2.50;;;;;;;25.31;37.62;99159.09;5113941;28;20237;-62
2022/04/16 10:07:48;;;;;;;2.40;2.30;;;;;;;25.52;36.28;99157.09;5113241;28;20453;-61
2022/04/16 10:10:25;;;;;;;2.43;2.33;;;;;;;25.55;38.99;99159.44;5113290;28;20205;-62
2022/04/16 10:13:04;;;;;;;2.53;2.33;;;;;;;25.66;38.73;99161.84;5112905;28;20210;-62
2022/04/16 10:15:51;;;;;;;2.80;2.60;;;;;;;25.74;38.88;99148.81;5114034;28;20593;-62
2022/04/16 10:18:19;;;;;;;2.63;2.40;;;;;;;25.70;36.03;99147.44;5113625;28;20293;-62
2022/04/16 10:20:53;;;;;;;2.80;2.70;;;;;;;25.71;36.63;99149.09;5112564;28;20651;-62
2022/04/16 10:23:30;;;;;;;3.07;2.87;;;;;;;25.78;36.46;99144.91;5113015;28;20204;-62
2022/04/16 10:26:04;;;;;;;2.57;2.37;;;;;;;25.83;36.30;99150.53;5113046;28;20630;-61
2022/04/16 10:28:39;;;;;;;2.43;2.33;;;;;;;25.45;35.11;99143.69;5111228;28;20769;-63
2022/04/16 10:31:18;;;;;;;2.40;2.30;;;;;;;25.55;35.27;99148.94;5113827;28;20202;-62
2022/04/16 10:33:57;;;;;;;110.57;38.80;;;;;;;25.59;37.18;99134.50;5113726;28;20255;-62
2022/04/16 10:36:25;;;;;;;9.37;6.77;;;;;;;25.70;33.89;99142.19;5113554;28;20210;-62
2022/04/16 10:38:53;;;;;;;6.47;5.43;;;;;;;25.69;34.88;99113.47;5113051;28;20219;-61
2022/04/16 10:41:22;;;;;;;3.03;2.70;;;;;;;26.06;33.88;99143.88;5112731;28;20285;-61
2022/04/16 10:43:53;;;;;;;2.93;2.77;;;;;;;26.29;32.51;99138.19;5112717;28;20285;-63
2022/04/16 10:46:20;;;;;;;1.90;1.80;;;;;;;26.16;32.89;99129.81;5109866;28;20619;-61
2022/04/16 10:48:50;;;;;;;2.47;2.27;;;;;;;25.96;33.71;99137.88;5112780;28;20231;-62
2022/04/16 10:51:22;;;;;;;2.03;1.93;;;;;;;25.75;33.23;99121.53;5110551;28;20233;-61
2022/04/16 10:53:48;;;;;;;2.80;2.60;;;;;;;25.67;35.70;99133.78;5112920;28;20647;-62
2022/04/16 10:56:17;;;;;;;2.43;2.33;;;;;;;25.72;34.62;99134.97;5113592;28;20203;-62
2022/04/16 10:58:47;;;;;;;3.07;2.07;;;;;;;25.56;34.98;99113.81;5107674;28;20663;-62
2022/04/16 11:01:23;;;;;;;1.93;1.83;;;;;;;25.57;33.46;99137.28;5109516;27;20199;-61
2022/04/16 11:03:50;;;;;;;2.00;1.90;;;;;;;25.60;32.65;99107.28;5110862;28;20622;-62
2022/04/16 11:06:18;;;;;;;2.20;2.10;;;;;;;25.93;31.81;99127.66;5112298;28;20301;-61
2022/04/16 11:40:27;;;;;;;2.37;2.27;;;;;;;26.54;31.24;99087.44;5123444;27;20546;-66
2022/04/16 11:42:54;;;;;;;1.73;1.63;;;;;;;26.28;31.25;99091.84;5128539;28;20290;-63
2022/04/16 11:45:21;;;;;;;2.20;2.10;;;;;;;26.26;30.70;99085.94;5126277;28;20206;-63
2022/04/16 11:47:49;;;;;;;1.97;1.87;;;;;;;26.42;32.05;99088.66;5128360;28;20208;-64
2022/04/16 11:50:18;;;;;;;1.93;1.83;;;;;;;26.38;33.34;99079.44;5127505;28;20206;-63
2022/04/16 11:52:50;;;;;;;1.47;1.47;;;;;;;26.41;31.88;99074.69;5126518;28;20210;-69
2022/04/16 11:55:19;;;;;;;2.60;2.50;;;;;;;26.42;29.92;99078.97;5127017;28;20205;-63
2022/04/16 11:57:49;;;;;;;1.50;1.47;;;;;;;26.35;31.20;99074.50;5128277;28;20644;-64
2022/04/16 12:00:19;;;;;;;2.13;2.03;;;;;;;26.31;32.23;99068.72;5128323;28;20434;-75
2022/04/16 12:02:47;;;;;;;3.13;2.37;;;;;;;25.90;31.65;99057.03;5127859;28;20705;-67
2022/04/16 12:05:15;;;;;;;1.87;1.77;;;;;;;25.73;31.49;99063.13;5127734;28;20209;-67
2022/04/16 12:07:43;;;;;;;2.23;2.13;;;;;;;25.51;32.41;99063.56;5127040;28;20769;-65
2022/04/16 12:10:13;;;;;;;2.20;2.10;;;;;;;25.37;33.26;99058.78;5126372;28;20218;-66
2022/04/16 12:12:48;;;;;;;3.30;2.67;;;;;;;25.41;32.44;99058.34;5126726;28;20247;-67
2022/04/16 12:15:23;;;;;;;1.73;1.63;;;;;;;25.55;31.39;99065.75;5125409;28;20201;-66
2022/04/16 12:17:51;;;;;;;3.77;2.00;;;;;;;25.66;32.38;99048.94;5125607;28;20601;-67
2022/04/16 12:20:20;;;;;;;2.17;2.07;;;;;;;25.82;33.80;99046.44;5126673;28;20206;-67
2022/04/16 12:22:51;;;;;;;2.13;2.03;;;;;;;25.79;32.44;99041.50;5126332;28;20224;-67
2022/04/16 12:25:19;;;;;;;2.40;1.77;;;;;;;25.64;31.93;99045.66;5126781;28;20584;-67
2022/04/16 12:27:49;;;;;;;2.10;2.00;;;;;;;25.53;32.12;99045.84;5125769;28;20206;-67
2022/04/16 12:30:19;;;;;;;2.00;1.90;;;;;;;25.44;33.48;99036.22;5125438;28;20297;-67